createdAt,value
2023-04-16T00:00:21.953Z,99359.16
2023-04-16T00:01:24.491Z,99356.56
2023-04-16T00:02:27.852Z,99360.75
2023-04-16T00:03:30.465Z,99358.03
2023-04-16T00:04:32.798Z,99355.66
2023-04-16T00:05:34.994Z,99354.13
2023-04-16T00:06:37.127Z,99352.03
2023-04-16T00:07:39.565Z,99349.38
2023-04-16T00:08:43.452Z,99352.03
2023-04-16T00:09:46.493Z,99357.78
2023-04-16T00:10:48.709Z,99357.03
2023-04-16T00:11:50.886Z,99345.06
2023-04-16T00:12:53.172Z,99354.81
2023-04-16T00:13:55.335Z,99354.50
2023-04-16T00:14:57.470Z,99353.63
2023-04-16T00:15:59.744Z,99352.75
2023-04-16T00:17:02.440Z,99355.91
2023-04-16T00:18:04.715Z,99355.31
2023-04-16T00:19:07.397Z,99360.59
2023-04-16T00:20:10.313Z,99358.59
2023-04-16T00:21:12.529Z,99362.81
2023-04-16T00:22:14.734Z,99358.50
2023-04-16T00:23:17.259Z,99362.75
2023-04-16T00:24:19.475Z,99360.50
2023-04-16T00:25:21.888Z,99364.06
2023-04-16T00:26:24.141Z,99359.84
2023-04-16T00:27:26.603Z,99360.00
2023-04-16T00:28:28.856Z,99357.72
2023-04-16T00:29:32.318Z,99359.19
2023-04-16T00:30:35.057Z,99366.22
2023-04-16T00:31:37.720Z,99360.00
2023-04-16T00:32:40.027Z,99360.63
2023-04-16T00:33:42.236Z,99368.50
2023-04-16T00:34:44.480Z,99364.81
2023-04-16T00:35:47.263Z,99359.78
2023-04-16T00:36:50.112Z,99364.72
2023-04-16T00:37:52.464Z,99364.41
2023-04-16T00:38:55.988Z,99363.38
2023-04-16T00:39:58.328Z,99371.16
2023-04-16T00:41:00.561Z,99372.94
2023-04-16T00:42:02.729Z,99360.06
2023-04-16T00:43:05.320Z,99365.47
2023-04-16T00:44:07.513Z,99367.22
2023-04-16T00:45:10.563Z,99365.53
2023-04-16T00:46:12.944Z,99371.44
2023-04-16T00:47:15.222Z,99365.69
2023-04-16T00:48:17.703Z,99365.47
2023-04-16T00:49:20.849Z,99372.41
2023-04-16T00:50:23.763Z,99360.94
2023-04-16T00:51:27.011Z,99368.22
2023-04-16T00:52:29.629Z,99374.53
2023-04-16T00:53:32.648Z,99368.56
2023-04-16T00:54:35.828Z,99368.50
2023-04-16T00:55:39.108Z,99373.66
2023-04-16T00:56:41.480Z,99363.88
2023-04-16T00:57:43.700Z,99369.13
2023-04-16T00:58:45.892Z,99368.31
2023-04-16T00:59:48.434Z,99369.09
2023-04-16T01:00:50.789Z,99368.03
2023-04-16T01:01:53.134Z,99377.25
2023-04-16T01:02:56.048Z,99358.06
2023-04-16T01:03:59.477Z,99366.63
2023-04-16T01:05:04.583Z,99366.81
2023-04-16T01:06:07.556Z,99371.44
2023-04-16T01:07:09.765Z,99367.19
2023-04-16T01:08:17.876Z,99362.50
2023-04-16T01:09:20.193Z,99365.09
2023-04-16T01:10:22.442Z,99361.28
2023-04-16T01:11:24.829Z,99362.13
2023-04-16T01:12:27.006Z,99367.00
2023-04-16T01:13:29.316Z,99367.75
2023-04-16T01:14:36.055Z,99365.69
2023-04-16T01:15:38.656Z,99372.06
2023-04-16T01:16:40.858Z,99366.81
2023-04-16T01:17:46.058Z,99369.44
2023-04-16T01:18:48.263Z,99373.94
2023-04-16T01:19:50.654Z,99373.97
2023-04-16T01:20:52.903Z,99367.78
2023-04-16T01:21:55.085Z,99372.38
2023-04-16T01:22:57.338Z,99371.50
2023-04-16T01:24:04.078Z,99374.09
2023-04-16T01:25:06.457Z,99374.94
2023-04-16T01:26:08.628Z,99378.25
2023-04-16T01:27:10.829Z,99381.78
2023-04-16T01:28:13.309Z,99378.91
2023-04-16T01:29:15.535Z,99374.53
2023-04-16T01:30:17.738Z,99366.56
2023-04-16T01:31:32.582Z,99368.84
2023-04-16T01:32:45.475Z,99375.06
2023-04-16T01:33:47.692Z,99378.00
2023-04-16T01:34:50.013Z,99380.00
2023-04-16T01:35:52.285Z,99380.66
2023-04-16T01:36:54.512Z,99380.78
2023-04-16T01:37:56.770Z,99378.16
2023-04-16T01:38:59.052Z,99376.94
2023-04-16T01:40:02.318Z,99384.66
2023-04-16T01:41:04.768Z,99380.00
2023-04-16T01:42:06.968Z,99376.91
2023-04-16T01:43:09.171Z,99378.00
2023-04-16T01:44:11.616Z,99386.72
2023-04-16T01:45:13.749Z,99383.00
2023-04-16T01:46:20.809Z,99381.44
2023-04-16T01:47:23.468Z,99389.72
2023-04-16T01:48:25.832Z,99380.22
2023-04-16T01:49:27.985Z,99382.91
2023-04-16T01:50:31.072Z,99382.28
2023-04-16T01:51:33.371Z,99387.94
2023-04-16T01:52:35.686Z,99384.84
2023-04-16T01:53:37.876Z,99377.50
2023-04-16T01:54:40.516Z,99374.88
2023-04-16T01:55:42.686Z,99379.16
2023-04-16T01:56:45.170Z,99378.41
2023-04-16T01:57:47.511Z,99371.31
2023-04-16T01:58:51.513Z,99374.72
2023-04-16T01:59:54.613Z,99381.03
2023-04-16T02:02:11.603Z,99380.78
2023-04-16T02:03:17.549Z,99381.78
2023-04-16T02:04:19.987Z,99381.13
2023-04-16T02:05:22.223Z,99388.06
2023-04-16T02:06:24.444Z,99382.69
2023-04-16T02:07:27.322Z,99383.69
2023-04-16T02:08:29.546Z,99376.63
2023-04-16T02:09:31.830Z,99389.75
2023-04-16T02:10:34.125Z,99384.47
2023-04-16T02:11:36.916Z,99381.22
2023-04-16T02:12:39.454Z,99382.88
2023-04-16T02:13:41.790Z,99382.66
2023-04-16T02:14:44.615Z,99389.72
2023-04-16T02:15:50.495Z,99391.81
2023-04-16T02:17:00.258Z,99386.63
2023-04-16T02:18:13.351Z,99385.75
2023-04-16T02:19:16.029Z,99382.03
2023-04-16T02:20:18.387Z,99379.50
2023-04-16T02:21:27.428Z,99380.38
2023-04-16T02:22:29.722Z,99380.59
2023-04-16T02:23:32.497Z,99378.91
2023-04-16T02:24:35.626Z,99382.03
2023-04-16T02:25:43.654Z,99387.34
2023-04-16T02:26:47.729Z,99388.59
2023-04-16T02:27:53.007Z,99386.06
2023-04-16T02:29:05.620Z,99387.66
2023-04-16T02:30:14.810Z,99389.28
2023-04-16T02:31:19.521Z,99386.56
2023-04-16T02:32:23.120Z,99383.34
2023-04-16T02:33:26.629Z,99391.06
2023-04-16T02:34:35.414Z,99386.56
2023-04-16T02:35:39.685Z,99389.88
2023-04-16T02:36:42.055Z,99390.81
2023-04-16T02:37:44.551Z,99394.78
2023-04-16T02:38:46.875Z,99396.06
2023-04-16T02:39:49.922Z,99396.31
2023-04-16T02:40:52.081Z,99396.31
2023-04-16T02:41:54.317Z,99396.41
2023-04-16T02:42:57.189Z,99389.34
2023-04-16T02:43:59.694Z,99385.69
2023-04-16T02:45:02.167Z,99385.69
2023-04-16T02:46:04.593Z,99390.09
2023-04-16T02:47:06.894Z,99384.00
2023-04-16T02:48:09.663Z,99387.47
2023-04-16T02:49:12.003Z,99388.97
2023-04-16T02:50:14.326Z,99382.38
2023-04-16T02:51:16.644Z,99384.34
2023-04-16T02:52:18.859Z,99395.69
2023-04-16T02:53:21.360Z,99386.19
2023-04-16T02:54:23.603Z,99391.25
2023-04-16T02:55:25.975Z,99397.31
2023-04-16T02:56:28.149Z,99386.03
2023-04-16T02:57:30.480Z,99384.88
2023-04-16T02:58:32.699Z,99391.88
2023-04-16T02:59:35.057Z,99398.72
2023-04-16T03:00:38.000Z,99397.13
2023-04-16T03:01:40.154Z,99397.69
2023-04-16T03:02:42.628Z,99388.97
2023-04-16T03:03:44.961Z,99396.91
2023-04-16T03:04:47.139Z,99397.16
2023-04-16T03:05:49.390Z,99393.59
2023-04-16T03:06:52.021Z,99387.66
2023-04-16T03:07:56.644Z,99392.50
2023-04-16T03:08:59.000Z,99400.25
2023-04-16T03:10:01.399Z,99396.59
2023-04-16T03:11:03.709Z,99393.78
2023-04-16T03:12:06.345Z,99395.41
2023-04-16T03:13:08.598Z,99399.97
2023-04-16T03:14:10.952Z,99399.91
2023-04-16T03:15:13.228Z,99397.13
2023-04-16T03:16:15.943Z,99396.16
2023-04-16T03:17:18.260Z,99396.31
2023-04-16T03:18:20.505Z,99397.81
2023-04-16T03:19:25.625Z,99402.38
2023-04-16T03:20:27.847Z,99401.50
2023-04-16T03:21:30.095Z,99405.91
2023-04-16T03:22:34.019Z,99407.56
2023-04-16T03:23:36.469Z,99411.06
2023-04-16T03:24:39.670Z,99412.13
2023-04-16T03:25:46.434Z,99404.13
2023-04-16T03:26:48.856Z,99393.53
2023-04-16T03:27:51.234Z,99413.72
2023-04-16T03:28:53.743Z,99409.34
2023-04-16T03:29:56.210Z,99415.50
2023-04-16T03:30:58.386Z,99412.09
2023-04-16T03:32:00.803Z,99404.53
2023-04-16T03:33:03.092Z,99411.69
2023-04-16T03:34:05.444Z,99414.34
2023-04-16T03:35:08.670Z,99417.28
2023-04-16T03:36:10.803Z,99412.88
2023-04-16T03:37:13.025Z,99416.34
2023-04-16T03:38:15.489Z,99412.81
2023-04-16T03:39:17.667Z,99408.56
2023-04-16T03:40:19.904Z,99412.75
2023-04-16T03:41:22.100Z,99411.97
2023-04-16T03:42:24.346Z,99415.38
2023-04-16T03:43:26.566Z,99406.78
2023-04-16T03:44:29.611Z,99420.34
2023-04-16T03:45:31.819Z,99418.66
2023-04-16T03:46:34.080Z,99421.84
2023-04-16T03:47:36.455Z,99417.50
2023-04-16T03:48:39.287Z,99424.50
2023-04-16T03:49:41.528Z,99421.09
2023-04-16T03:50:49.783Z,99421.72
2023-04-16T03:51:54.690Z,99417.38
2023-04-16T03:52:57.038Z,99422.50
2023-04-16T03:53:59.397Z,99411.72
2023-04-16T03:55:04.018Z,99415.63
2023-04-16T03:56:07.379Z,99422.59
2023-04-16T03:57:09.542Z,99414.97
2023-04-16T03:58:11.727Z,99423.84
2023-04-16T03:59:14.002Z,99421.25
2023-04-16T04:00:16.479Z,99423.69
2023-04-16T04:01:44.695Z,99416.47
2023-04-16T04:02:47.238Z,99416.28
2023-04-16T04:03:54.355Z,99428.59
2023-04-16T04:04:56.707Z,99426.59
2023-04-16T04:05:59.008Z,99422.47
2023-04-16T04:07:04.704Z,99422.50
2023-04-16T04:08:07.125Z,99424.19
2023-04-16T04:09:09.507Z,99415.41
2023-04-16T04:10:11.818Z,99424.22
2023-04-16T04:11:16.741Z,99416.34
2023-04-16T04:12:19.397Z,99420.91
2023-04-16T04:13:22.731Z,99420.84
2023-04-16T04:14:26.312Z,99423.44
2023-04-16T04:15:29.667Z,99424.34
2023-04-16T04:16:32.455Z,99426.50
2023-04-16T04:17:35.325Z,99423.97
2023-04-16T04:18:38.135Z,99428.16
2023-04-16T04:19:47.256Z,99424.75
2023-04-16T04:20:57.126Z,99430.13
2023-04-16T04:22:03.551Z,99428.69
2023-04-16T04:23:05.695Z,99427.53
2023-04-16T04:24:08.249Z,99431.13
2023-04-16T04:25:10.918Z,99426.75
2023-04-16T04:26:13.192Z,99427.59
2023-04-16T04:27:16.124Z,99427.59
2023-04-16T04:28:18.293Z,99437.91
2023-04-16T04:29:20.649Z,99432.88
2023-04-16T04:30:22.911Z,99428.50
2023-04-16T04:31:25.273Z,99434.63
2023-04-16T04:32:27.566Z,99437.16
2023-04-16T04:33:29.755Z,99440.56
2023-04-16T04:34:31.945Z,99425.75
2023-04-16T04:35:34.664Z,99431.13
2023-04-16T04:36:37.566Z,99423.94
2023-04-16T04:37:39.812Z,99438.91
2023-04-16T04:38:49.130Z,99436.16
2023-04-16T04:39:51.829Z,99443.06
2023-04-16T04:40:54.213Z,99445.91
2023-04-16T04:41:58.213Z,99442.47
2023-04-16T04:43:00.367Z,99445.22
2023-04-16T04:44:02.582Z,99449.47
2023-04-16T04:45:05.763Z,99439.00
2023-04-16T04:46:09.652Z,99445.09
2023-04-16T04:47:11.984Z,99448.34
2023-04-16T04:48:14.336Z,99454.66
2023-04-16T04:49:16.591Z,99453.03
2023-04-16T04:50:19.039Z,99446.88
2023-04-16T04:51:22.177Z,99454.19
2023-04-16T04:52:24.370Z,99451.44
2023-04-16T04:53:26.743Z,99462.81
2023-04-16T04:54:31.097Z,99459.13
2023-04-16T04:55:33.303Z,99456.94
2023-04-16T04:56:35.644Z,99455.47
2023-04-16T04:57:37.807Z,99463.94
2023-04-16T04:58:41.566Z,99457.84
2023-04-16T04:59:43.965Z,99456.44
2023-04-16T05:00:47.841Z,99461.66
2023-04-16T05:01:50.718Z,99462.50
2023-04-16T05:02:52.989Z,99463.41
2023-04-16T05:03:55.436Z,99461.47
2023-04-16T05:04:57.621Z,99465.00
2023-04-16T05:05:59.906Z,99462.38
2023-04-16T05:07:02.544Z,99470.13
2023-04-16T05:08:04.892Z,99470.22
2023-04-16T05:09:11.487Z,99462.31
2023-04-16T05:10:14.311Z,99474.09
2023-04-16T05:11:16.493Z,99470.50
2023-04-16T05:12:18.692Z,99473.19
2023-04-16T05:13:20.895Z,99473.31
2023-04-16T05:14:23.183Z,99479.13
2023-04-16T05:15:25.348Z,99479.19
2023-04-16T05:16:27.562Z,99477.28
2023-04-16T05:17:29.718Z,99481.47
2023-04-16T05:18:33.268Z,99480.16
2023-04-16T05:19:35.522Z,99482.50
2023-04-16T05:20:37.898Z,99483.28
2023-04-16T05:21:40.170Z,99471.91
2023-04-16T05:22:42.366Z,99473.63
2023-04-16T05:23:44.526Z,99477.19
2023-04-16T05:24:46.685Z,99483.13
2023-04-16T05:25:48.796Z,99481.34
2023-04-16T05:26:51.240Z,99485.50
2023-04-16T05:27:53.410Z,99485.72
2023-04-16T05:28:55.813Z,99492.69
2023-04-16T05:29:58.037Z,99483.38
2023-04-16T05:31:00.327Z,99483.25
2023-04-16T05:32:02.721Z,99489.06
2023-04-16T05:33:04.936Z,99477.75
2023-04-16T05:34:07.066Z,99483.09
2023-04-16T05:35:09.830Z,99490.28
2023-04-16T05:36:12.005Z,99487.44
2023-04-16T05:37:14.213Z,99494.31
2023-04-16T05:38:16.372Z,99484.72
2023-04-16T05:39:18.690Z,99490.09
2023-04-16T05:40:20.907Z,99487.56
2023-04-16T05:41:23.148Z,99496.00
2023-04-16T05:42:25.345Z,99497.28
2023-04-16T05:43:27.582Z,99498.94
2023-04-16T05:44:29.739Z,99503.16
2023-04-16T05:45:33.436Z,99499.66
2023-04-16T05:46:35.851Z,99497.53
2023-04-16T05:47:38.190Z,99500.69
2023-04-16T05:48:40.484Z,99506.59
2023-04-16T05:49:42.641Z,99502.56
2023-04-16T05:50:44.856Z,99508.56
2023-04-16T05:51:47.391Z,99505.59
2023-04-16T05:52:49.606Z,99507.34
2023-04-16T05:53:51.788Z,99507.50
2023-04-16T05:54:53.990Z,99506.00
2023-04-16T05:55:56.171Z,99517.88
2023-04-16T05:56:58.353Z,99515.34
2023-04-16T05:58:00.571Z,99514.75
2023-04-16T05:59:02.791Z,99515.28
2023-04-16T06:00:05.557Z,99514.00
2023-04-16T06:01:14.295Z,99516.53
2023-04-16T06:02:16.586Z,99512.56
2023-04-16T06:03:18.952Z,99514.94
2023-04-16T06:04:21.440Z,99519.97
2023-04-16T06:05:28.765Z,99519.91
2023-04-16T06:06:31.254Z,99524.47
2023-04-16T06:07:33.546Z,99517.25
2023-04-16T06:08:35.765Z,99523.97
2023-04-16T06:09:38.002Z,99521.16
2023-04-16T06:10:40.384Z,99522.97
2023-04-16T06:11:42.785Z,99519.78
2023-04-16T06:12:45.062Z,99522.31
2023-04-16T06:13:47.316Z,99522.94
2023-04-16T06:14:49.512Z,99521.34
2023-04-16T06:15:51.782Z,99526.28
2023-04-16T06:16:53.984Z,99513.00
2023-04-16T06:17:56.325Z,99526.66
2023-04-16T06:18:58.585Z,99528.16
2023-04-16T06:20:00.823Z,99522.00
2023-04-16T06:21:04.137Z,99535.44
2023-04-16T06:22:06.563Z,99528.38
2023-04-16T06:23:08.687Z,99520.34
2023-04-16T06:24:11.205Z,99525.53
2023-04-16T06:25:13.375Z,99518.53
2023-04-16T06:26:15.775Z,99526.28
2023-04-16T06:27:17.950Z,99512.22
2023-04-16T06:28:20.223Z,99517.31
2023-04-16T06:29:25.925Z,99517.06
2023-04-16T06:30:36.004Z,99518.34
2023-04-16T06:31:38.237Z,99518.88
2023-04-16T06:32:40.884Z,99522.34
2023-04-16T06:33:43.306Z,99527.53
2023-04-16T06:34:45.620Z,99522.56
2023-04-16T06:35:47.828Z,99526.78
2023-04-16T06:36:50.024Z,99526.97
2023-04-16T06:37:52.284Z,99525.88
2023-04-16T06:38:54.740Z,99525.75
2023-04-16T06:39:56.942Z,99530.81
2023-04-16T06:40:59.571Z,99533.03
2023-04-16T06:42:02.038Z,99529.53
2023-04-16T06:43:04.385Z,99529.94
2023-04-16T06:44:06.696Z,99536.44
2023-04-16T06:45:09.196Z,99529.94
2023-04-16T06:46:11.411Z,99528.97
2023-04-16T06:47:13.584Z,99535.81
2023-04-16T06:48:16.029Z,99535.09
2023-04-16T06:49:18.364Z,99539.13
2023-04-16T06:50:21.270Z,99536.09
2023-04-16T06:51:23.537Z,99542.72
2023-04-16T06:52:26.068Z,99531.22
2023-04-16T06:53:28.371Z,99541.75
2023-04-16T06:54:30.938Z,99534.00
2023-04-16T06:55:33.254Z,99535.31
2023-04-16T06:56:37.329Z,99538.03
2023-04-16T06:57:40.673Z,99551.69
2023-04-16T06:58:42.860Z,99542.47
2023-04-16T06:59:45.127Z,99538.44
2023-04-16T07:00:47.367Z,99542.84
2023-04-16T07:01:49.561Z,99543.94
2023-04-16T07:02:52.049Z,99548.00
2023-04-16T07:03:54.827Z,99547.75
2023-04-16T07:04:57.147Z,99553.84
2023-04-16T07:05:59.396Z,99550.84
2023-04-16T07:07:01.802Z,99551.63
2023-04-16T07:08:04.086Z,99548.34
2023-04-16T07:09:06.234Z,99553.44
2023-04-16T07:10:08.796Z,99548.16
2023-04-16T07:11:11.502Z,99548.22
2023-04-16T07:12:13.739Z,99551.47
2023-04-16T07:13:16.002Z,99554.19
2023-04-16T07:14:18.170Z,99553.44
2023-04-16T07:15:20.417Z,99549.81
2023-04-16T07:16:22.804Z,99550.38
2023-04-16T07:17:25.174Z,99555.72
2023-04-16T07:18:27.586Z,99548.69
2023-04-16T07:19:32.495Z,99548.69
2023-04-16T07:20:36.099Z,99548.88
2023-04-16T07:21:38.846Z,99557.81
2023-04-16T07:22:41.243Z,99562.19
2023-04-16T07:23:43.821Z,99558.38
2023-04-16T07:24:46.097Z,99557.47
2023-04-16T07:25:48.530Z,99555.81
2023-04-16T07:26:50.810Z,99548.69
2023-04-16T07:27:53.060Z,99552.91
2023-04-16T07:28:55.249Z,99558.34
2023-04-16T07:29:57.791Z,99558.56
2023-04-16T07:31:00.370Z,99556.69
2023-04-16T07:32:02.996Z,99566.59
2023-04-16T07:33:05.573Z,99563.16
2023-04-16T07:34:08.224Z,99559.84
2023-04-16T07:35:10.437Z,99566.56
2023-04-16T07:36:12.786Z,99562.41
2023-04-16T07:37:15.073Z,99563.63
2023-04-16T07:38:17.662Z,99565.28
2023-04-16T07:39:19.832Z,99566.72
2023-04-16T07:40:23.022Z,99568.38
2023-04-16T07:41:25.810Z,99564.84
2023-04-16T07:42:28.137Z,99561.06
2023-04-16T07:43:30.385Z,99566.63
2023-04-16T07:44:32.763Z,99572.78
2023-04-16T07:45:37.382Z,99575.09
2023-04-16T07:46:46.748Z,99573.41
2023-04-16T07:47:49.804Z,99570.06
2023-04-16T07:48:52.130Z,99570.13
2023-04-16T07:49:54.286Z,99576.69
2023-04-16T07:50:56.505Z,99570.94
2023-04-16T07:51:58.686Z,99574.25
2023-04-16T07:53:01.144Z,99578.31
2023-04-16T07:54:03.357Z,99566.69
2023-04-16T07:55:06.386Z,99575.28
2023-04-16T07:56:08.666Z,99570.50
2023-04-16T07:57:12.191Z,99572.69
2023-04-16T07:58:14.378Z,99578.53
2023-04-16T07:59:22.681Z,99570.16
2023-04-16T08:00:26.413Z,99574.50
2023-04-16T08:01:28.600Z,99578.81
2023-04-16T08:02:31.294Z,99574.03
2023-04-16T08:03:33.721Z,99578.84
2023-04-16T08:04:36.310Z,99577.25
2023-04-16T08:05:38.787Z,99572.38
2023-04-16T08:06:41.284Z,99565.66
2023-04-16T08:07:43.460Z,99575.19
2023-04-16T08:08:45.695Z,99580.16
2023-04-16T08:09:49.488Z,99573.59
2023-04-16T08:10:55.702Z,99585.16
2023-04-16T08:11:58.033Z,99575.75
2023-04-16T08:13:01.481Z,99584.66
2023-04-16T08:14:03.743Z,99582.88
2023-04-16T08:15:06.642Z,99582.19
2023-04-16T08:16:08.895Z,99582.97
2023-04-16T08:17:15.012Z,99581.06
2023-04-16T08:18:17.276Z,99583.81
2023-04-16T08:19:19.580Z,99596.72
2023-04-16T08:20:21.730Z,99592.78
2023-04-16T08:21:23.953Z,99595.50
2023-04-16T08:22:26.368Z,99590.16
2023-04-16T08:23:28.784Z,99595.19
2023-04-16T08:24:31.586Z,99599.16
2023-04-16T08:25:34.205Z,99597.09
2023-04-16T08:26:36.396Z,99598.38
2023-04-16T08:27:38.585Z,99604.59
2023-04-16T08:28:40.764Z,99601.78
2023-04-16T08:29:42.956Z,99607.06
2023-04-16T08:30:45.692Z,99596.69
2023-04-16T08:31:47.994Z,99608.13
2023-04-16T08:32:50.552Z,99606.19
2023-04-16T08:33:52.842Z,99619.41
2023-04-16T08:34:55.291Z,99599.63
2023-04-16T08:35:57.643Z,99602.16
2023-04-16T08:36:59.881Z,99620.88
2023-04-16T08:38:03.541Z,99621.13
2023-04-16T08:39:05.869Z,99615.69
2023-04-16T08:40:08.668Z,99619.47
2023-04-16T08:41:13.362Z,99617.34
2023-04-16T08:42:26.339Z,99614.88
2023-04-16T08:43:33.641Z,99617.41
2023-04-16T08:44:43.559Z,99624.13
2023-04-16T08:45:47.405Z,99618.38
2023-04-16T08:46:51.499Z,99620.66
2023-04-16T08:47:53.834Z,99624.72
2023-04-16T08:48:59.083Z,99623.13
2023-04-16T08:50:03.750Z,99621.13
2023-04-16T08:51:09.779Z,99621.88
2023-04-16T08:52:18.424Z,99630.25
2023-04-16T08:53:29.644Z,99624.41
2023-04-16T08:54:34.520Z,99628.38
2023-04-16T08:55:41.386Z,99629.66
2023-04-16T08:56:43.676Z,99630.59
2023-04-16T08:57:48.902Z,99626.22
2023-04-16T08:58:54.866Z,99632.53
2023-04-16T08:59:58.079Z,99629.22
2023-04-16T09:01:03.037Z,99629.19
2023-04-16T09:02:06.357Z,99630.00
2023-04-16T09:03:09.516Z,99621.34
2023-04-16T09:04:14.388Z,99631.06
2023-04-16T09:05:17.494Z,99627.53
2023-04-16T09:06:19.654Z,99631.44
2023-04-16T09:07:22.143Z,99636.78
2023-04-16T09:08:25.498Z,99626.41
2023-04-16T09:09:28.827Z,99633.94
2023-04-16T09:10:31.366Z,99632.16
2023-04-16T09:11:34.379Z,99625.94
2023-04-16T09:12:36.773Z,99634.78
2023-04-16T09:13:39.181Z,99631.81
2023-04-16T09:14:42.970Z,99643.13
2023-04-16T09:15:45.544Z,99631.94
2023-04-16T09:16:48.163Z,99642.19
2023-04-16T09:17:50.500Z,99643.75
2023-04-16T09:18:52.747Z,99638.22
2023-04-16T09:19:55.084Z,99640.50
2023-04-16T09:20:57.508Z,99644.53
2023-04-16T09:21:59.766Z,99637.63
2023-04-16T09:23:02.222Z,99638.50
2023-04-16T09:24:04.663Z,99645.41
2023-04-16T09:25:07.509Z,99643.03
2023-04-16T09:26:09.750Z,99638.22
2023-04-16T09:27:12.875Z,99642.03
2023-04-16T09:28:38.783Z,99648.81
2023-04-16T09:29:41.663Z,99643.91
2023-04-16T09:30:43.974Z,99640.47
2023-04-16T09:32:01.722Z,99650.19
2023-04-16T09:33:17.271Z,99642.84
2023-04-16T09:34:19.477Z,99647.16
2023-04-16T09:35:21.829Z,99646.34
2023-04-16T09:36:24.019Z,99653.28
2023-04-16T09:37:31.125Z,99647.84
2023-04-16T09:38:52.389Z,99656.00
2023-04-16T09:40:02.252Z,99653.22
2023-04-16T09:41:08.720Z,99656.56
2023-04-16T09:42:14.269Z,99651.88
2023-04-16T09:43:18.289Z,99651.84
2023-04-16T09:44:20.523Z,99650.91
2023-04-16T09:45:22.753Z,99653.22
2023-04-16T09:46:29.602Z,99654.50
2023-04-16T09:47:45.717Z,99649.16
2023-04-16T09:48:47.971Z,99654.56
2023-04-16T09:49:50.300Z,99657.41
2023-04-16T09:50:52.529Z,99644.94
2023-04-16T09:51:56.171Z,99653.66
2023-04-16T09:53:02.498Z,99650.66
2023-04-16T09:54:05.542Z,99657.78
2023-04-16T09:55:07.999Z,99657.81
2023-04-16T09:56:12.569Z,99661.25
2023-04-16T09:57:18.510Z,99658.31
2023-04-16T09:58:20.951Z,99656.69
2023-04-16T09:59:24.206Z,99660.00
2023-04-16T10:00:26.540Z,99650.09
2023-04-16T10:01:30.774Z,99666.28
2023-04-16T10:02:39.016Z,99653.09
2023-04-16T10:03:41.881Z,99664.56
2023-04-16T10:04:48.564Z,99668.28
2023-04-16T10:05:53.609Z,99658.53
2023-04-16T10:07:06.260Z,99665.09
2023-04-16T10:08:13.005Z,99670.31
2023-04-16T10:09:15.272Z,99669.63
2023-04-16T10:10:21.618Z,99661.41
2023-04-16T10:11:29.665Z,99668.34
2023-04-16T10:12:32.973Z,99670.41
2023-04-16T10:13:35.262Z,99663.34
2023-04-16T10:14:37.706Z,99668.91
2023-04-16T10:15:40.721Z,99679.41
2023-04-16T10:16:43.969Z,99669.63
2023-04-16T10:17:46.793Z,99671.47
2023-04-16T10:18:49.098Z,99669.63
2023-04-16T10:19:51.490Z,99671.72
2023-04-16T10:20:53.742Z,99671.56
2023-04-16T10:21:56.035Z,99671.06
2023-04-16T10:22:59.057Z,99669.50
2023-04-16T10:24:01.543Z,99676.81
2023-04-16T10:25:04.117Z,99680.91
2023-04-16T10:26:06.464Z,99675.66
2023-04-16T10:27:08.811Z,99679.72
2023-04-16T10:28:13.498Z,99671.78
2023-04-16T10:29:15.957Z,99682.44
2023-04-16T10:30:19.414Z,99676.06
2023-04-16T10:31:22.705Z,99675.50
2023-04-16T10:32:28.462Z,99667.78
2023-04-16T10:33:33.307Z,99679.59
2023-04-16T10:34:36.338Z,99669.06
2023-04-16T10:35:41.293Z,99679.03
2023-04-16T10:36:43.531Z,99680.97
2023-04-16T10:37:45.853Z,99679.59
2023-04-16T10:38:50.047Z,99681.94
2023-04-16T10:39:52.442Z,99682.16
2023-04-16T10:41:03.407Z,99682.44
2023-04-16T10:42:12.748Z,99688.84
2023-04-16T10:43:19.289Z,99680.81
2023-04-16T10:44:24.780Z,99684.34
2023-04-16T10:45:31.507Z,99689.97
2023-04-16T10:46:38.388Z,99688.84
2023-04-16T10:47:43.003Z,99690.47
2023-04-16T10:49:50.992Z,99691.28
2023-04-16T10:50:57.572Z,99686.66
2023-04-16T10:52:03.080Z,99687.84
2023-04-16T10:53:31.225Z,99695.75
2023-04-16T10:54:36.058Z,99689.63
2023-04-16T10:55:39.138Z,99697.72
2023-04-16T10:56:41.331Z,99693.91
2023-04-16T10:57:43.773Z,99679.97
2023-04-16T10:58:45.990Z,99687.56
2023-04-16T10:59:48.977Z,99694.44
2023-04-16T11:00:52.691Z,99683.72
2023-04-16T11:02:01.286Z,99681.59
2023-04-16T11:03:04.650Z,99689.84
2023-04-16T11:04:22.339Z,99691.06
2023-04-16T11:05:24.673Z,99695.25
2023-04-16T11:06:28.381Z,99689.66
2023-04-16T11:07:34.759Z,99689.25
2023-04-16T11:08:53.339Z,99692.69
2023-04-16T11:10:02.971Z,99687.75
2023-04-16T11:11:05.948Z,99687.63
2023-04-16T11:12:11.880Z,99686.28
2023-04-16T11:13:14.290Z,99686.56
2023-04-16T11:14:16.566Z,99688.31
2023-04-16T11:15:23.309Z,99688.13
2023-04-16T11:16:26.349Z,99686.09
2023-04-16T11:17:31.777Z,99683.72
2023-04-16T11:18:34.491Z,99691.03
2023-04-16T11:19:38.078Z,99688.59
2023-04-16T11:20:41.426Z,99699.69
2023-04-16T11:21:45.140Z,99695.28
2023-04-16T11:22:51.701Z,99689.16
2023-04-16T11:23:54.046Z,99692.31
2023-04-16T11:24:56.704Z,99700.13
2023-04-16T11:25:59.265Z,99690.41
2023-04-16T11:27:01.757Z,99696.84
2023-04-16T11:28:04.028Z,99700.66
2023-04-16T11:29:14.752Z,99691.34
2023-04-16T11:30:17.443Z,99698.47
2023-04-16T11:31:19.821Z,99697.28
2023-04-16T11:32:22.711Z,99699.38
2023-04-16T11:33:25.583Z,99699.28
2023-04-16T11:34:27.838Z,99695.84
2023-04-16T11:35:30.285Z,99697.09
2023-04-16T11:36:46.057Z,99693.44
2023-04-16T11:37:50.862Z,99695.97
2023-04-16T11:39:02.071Z,99697.63
2023-04-16T11:40:09.586Z,99696.28
2023-04-16T11:41:18.962Z,99699.03
2023-04-16T11:42:23.020Z,99694.34
2023-04-16T11:43:26.720Z,99694.34
2023-04-16T11:44:29.626Z,99701.09
2023-04-16T11:45:31.873Z,99693.22
2023-04-16T11:46:42.793Z,99699.25
2023-04-16T11:47:51.785Z,99697.28
2023-04-16T11:48:57.918Z,99697.94
2023-04-16T11:50:16.542Z,99694.97
2023-04-16T11:51:19.554Z,99694.09
2023-04-16T11:52:29.121Z,99701.16
2023-04-16T11:53:31.362Z,99698.47
2023-04-16T11:54:34.858Z,99695.84
2023-04-16T11:55:45.527Z,99702.84
2023-04-16T11:56:49.286Z,99689.84
2023-04-16T11:57:52.132Z,99701.09
2023-04-16T11:59:11.720Z,99699.50
2023-04-16T12:00:14.976Z,99706.09
2023-04-16T12:01:21.326Z,99691.78
2023-04-16T12:02:40.505Z,99704.31
2023-04-16T12:03:46.886Z,99697.09
2023-04-16T12:04:49.590Z,99702.47
2023-04-16T12:05:51.837Z,99700.72
2023-04-16T12:07:13.247Z,99700.69
2023-04-16T12:08:29.330Z,99701.25
2023-04-16T12:09:31.589Z,99691.56
2023-04-16T12:10:35.810Z,99699.69
2023-04-16T12:11:41.538Z,99700.16
2023-04-16T12:12:43.688Z,99701.31
2023-04-16T12:14:11.214Z,99707.06
2023-04-16T12:15:13.540Z,99698.28
2023-04-16T12:16:22.469Z,99699.78
2023-04-16T12:17:24.898Z,99695.50
2023-04-16T12:18:27.307Z,99704.28
2023-04-16T12:19:29.581Z,99697.31
2023-04-16T12:20:41.476Z,99704.44
2023-04-16T12:21:45.843Z,99704.53
2023-04-16T12:22:49.626Z,99714.75
2023-04-16T12:23:54.833Z,99713.13
2023-04-16T12:25:04.439Z,99706.31
2023-04-16T12:26:10.162Z,99713.72
2023-04-16T12:27:12.900Z,99708.38
2023-04-16T12:28:16.503Z,99713.06
2023-04-16T12:29:24.265Z,99711.97
2023-04-16T12:30:27.700Z,99709.91